• Join FlightAware (Why Join?)
  • Login
  • US Flag 
10:15PM EDT


 

Airport Tracker/Info


-or-


 

Live Flight TrackerFlight Track Log ✈ TAM3194 ✈ 14-Jul-2013 ✈ SBRJ / SDU - SBVT / VIX

Flight Track Log - Related Links

Times and Time Zones

All times are in EDT time to prevent confusion due to time zone crossing. See the TAM3194 flight status page for this flight to view local times or setup timezone preferences in your user account.

Time Position Orientation Groundspeed Altitude Reporting Facility
EDT Latitude Longitude Course Direction KTS MPH feet Rate Location/Type
11:32AM -22.4034 -42.6006 46° Northeast  Level Estimated
11:33AM -22.3526 -42.5446 46° Northeast  Level Estimated
11:34AM -22.3018 -42.4886 46° Northeast  Level Estimated
11:35AM -22.2509 -42.4327 46° Northeast  Level Estimated
11:36AM -22.2000 -42.3768 46° Northeast  Level Estimated
11:37AM -22.1492 -42.3209 45° Northeast  Level Estimated
11:38AM -22.0982 -42.2651 45° Northeast  Level Estimated
11:39AM -22.0473 -42.2093 45° Northeast  Level Estimated
11:40AM -21.9964 -42.1536 45° Northeast  Level Estimated
11:41AM -21.9454 -42.0979 45° Northeast  Level Estimated
11:42AM -21.8944 -42.0422 45° Northeast  Level Estimated
11:43AM -21.8434 -41.9866 45° Northeast  Level Estimated
11:44AM -21.7924 -41.9310 45° Northeast  Level Estimated
11:45AM -21.7414 -41.8755 45° Northeast  Level Estimated
11:46AM -21.6903 -41.8200 45° Northeast  Level Estimated
11:47AM -21.6392 -41.7645 45° Northeast  Level Estimated
11:48AM -21.5881 -41.7091 45° Northeast  Level Estimated
11:49AM -21.5370 -41.6537 45° Northeast  Level Estimated
11:50AM -21.4859 -41.5984 45° Northeast  Level Estimated
11:51AM -21.4347 -41.5430 45° Northeast  Level Estimated
11:52AM -21.3836 -41.4878 45° Northeast  Level Estimated
11:53AM -21.3324 -41.4325 45° Northeast  Level Estimated
11:54AM -21.2812 -41.3773 45° Northeast  Level Estimated
11:55AM -21.2299 -41.3222 45° Northeast  Level Estimated
11:56AM -21.1787 -41.2671 45° Northeast  Level Estimated
11:57AM -21.1274 -41.2120 45° Northeast  Level Estimated
11:58AM -21.0762 -41.1570 45° Northeast  Level Estimated
11:59AM -21.0249 -41.1020 45° Northeast  Level Estimated
12:00PM -20.9736 -41.0470 45° Northeast  Level Estimated
12:01PM -20.9222 -40.9921 45° Northeast  Level Estimated
12:02PM -20.8709 -40.9372 45° Northeast  Level Estimated
12:03PM -20.8195 -40.8823 45° Northeast  Level Estimated
12:04PM -20.7681 -40.8275 45° Northeast  Level Estimated
12:05PM -20.7167 -40.7728 45° Northeast  Level Estimated
12:06PM -20.6653 -40.7180 45° Northeast  Level Estimated
12:07PM -20.6139 -40.6633 45° Northeast  Level Estimated
12:08PM -20.5624 -40.6087 45° Northeast  Level Estimated
12:09PM -20.5110 -40.5540 45° Northeast  Level Estimated
12:10PM -20.4595 -40.4994 45° Northeast  Level Estimated
12:11PM -20.4080 -40.4449 45° Northeast  Level Estimated
12:12PM -20.3564 -40.3904 45° Northeast  Level Estimated
12:13PM -20.3049 -40.3359 45° Northeast  Level Estimated
12:14PM -20.2581 -40.2864 45° Northeast  Level Estimated
12:15PM -20.2581 -40.2864 13° North  Level Estimated
12:16PM -20.2581 -40.2864 13° North  Level Estimated
12:17PM -20.2581 -40.2864 13° North  Level Estimated
12:18PM -20.2581 -40.2864 13° North  Level Estimated
12:19PM -20.2581 -40.2864 13° North  Level Estimated
12:20PM -20.2581 -40.2864 13° North  Level Estimated
12:21PM -20.2581 -40.2864 13° North  Level Estimated
12:22PM -20.2581 -40.2864 13° North  Level Estimated
12:23PM -20.2581 -40.2864 13° North  Level Estimated
12:24PM -20.2581 -40.2864 13° North  Level Estimated
12:25PM -20.2581 -40.2864 13° North  Level Estimated
12:26PM -20.2581 -40.2864 13° North  Level Estimated
12:27PM -20.2581 -40.2864 13° North  Level Estimated
12:28PM -20.2581 -40.2864 13° North  Level Estimated
12:29PM -20.2581 -40.2864 13° North  Level Estimated
12:30PM -20.2581 -40.2864 13° North  Level Estimated